createdAt,value
2019-03-11T00:00:11.490Z,11.40
2019-03-11T00:00:54.341Z,10.00
2019-03-11T00:01:37.308Z,10.23
2019-03-11T00:02:17.163Z,9.55
2019-03-11T00:02:55.925Z,9.50
2019-03-11T00:03:35.866Z,10.68
2019-03-11T00:04:16.054Z,10.03
2019-03-11T00:04:55.774Z,10.72
2019-03-11T00:05:34.770Z,9.73
2019-03-11T00:06:14.375Z,9.47
2019-03-11T00:06:53.353Z,10.15
2019-03-11T00:07:32.113Z,10.10
2019-03-11T00:08:10.907Z,10.25
2019-03-11T00:08:50.048Z,10.40
2019-03-11T00:09:29.569Z,10.57
2019-03-11T00:10:09.345Z,10.60
2019-03-11T00:10:48.816Z,9.85
2019-03-11T00:11:28.363Z,10.13
2019-03-11T00:12:07.576Z,12.93
2019-03-11T00:12:46.901Z,11.10
2019-03-11T00:13:26.832Z,10.30
2019-03-11T00:14:06.187Z,11.60
2019-03-11T00:14:45.685Z,13.25
2019-03-11T00:15:25.107Z,11.15
2019-03-11T00:16:03.843Z,12.43
2019-03-11T00:16:42.593Z,11.43
2019-03-11T00:17:21.483Z,10.30
2019-03-11T00:18:00.399Z,10.50
2019-03-11T00:18:39.560Z,10.30
2019-03-11T00:19:19.087Z,15.03
2019-03-11T00:19:58.346Z,11.30
2019-03-11T00:20:38.281Z,9.90
2019-03-11T00:21:17.596Z,11.13
2019-03-11T00:21:57.617Z,10.05
2019-03-11T00:22:36.930Z,14.10
2019-03-11T00:23:16.472Z,10.88
2019-03-11T00:23:56.016Z,9.90
2019-03-11T00:24:35.006Z,9.67
2019-03-11T00:25:13.851Z,9.97
2019-03-11T00:25:54.061Z,11.33
2019-03-11T00:26:33.073Z,9.73
2019-03-11T00:27:11.880Z,12.10
2019-03-11T00:27:51.507Z,10.50
2019-03-11T00:28:30.241Z,10.25
2019-03-11T00:29:09.689Z,11.10
2019-03-11T00:29:49.539Z,10.28
2019-03-11T00:30:28.731Z,14.60
2019-03-11T00:31:08.062Z,10.63
2019-03-11T00:31:47.494Z,9.85
2019-03-11T00:32:26.706Z,12.50
2019-03-11T00:33:05.477Z,9.60
2019-03-11T00:33:44.334Z,12.45
2019-03-11T00:34:23.270Z,10.55
2019-03-11T00:35:01.970Z,9.98
2019-03-11T00:35:40.977Z,11.25
2019-03-11T00:36:20.485Z,10.63
2019-03-11T00:36:59.741Z,10.28
2019-03-11T00:37:39.286Z,11.10
2019-03-11T00:38:18.049Z,11.33
2019-03-11T00:38:57.375Z,10.50
2019-03-11T00:39:36.977Z,9.75
2019-03-11T00:40:16.323Z,10.55
2019-03-11T00:40:55.114Z,13.00
2019-03-11T00:41:40.388Z,10.60
2019-03-11T00:42:19.341Z,11.60
2019-03-11T00:43:00.642Z,12.60
2019-03-11T00:43:58.952Z,10.35
2019-03-11T00:44:38.492Z,11.47
2019-03-11T00:45:17.963Z,11.33
2019-03-11T00:45:57.348Z,11.63
2019-03-11T00:46:36.742Z,11.23
2019-03-11T00:47:15.499Z,11.75
2019-03-11T00:48:01.995Z,10.77
2019-03-11T00:48:37.642Z,10.40
2019-03-11T00:49:16.437Z,10.98
2019-03-11T00:49:55.644Z,12.13
2019-03-11T00:50:34.352Z,10.67
2019-03-11T00:51:13.382Z,11.00
2019-03-11T00:51:53.196Z,10.50
2019-03-11T00:52:32.303Z,12.58
2019-03-11T00:53:11.709Z,13.80
2019-03-11T00:53:51.289Z,11.57
2019-03-11T00:54:30.537Z,11.00
2019-03-11T00:55:10.408Z,11.57
2019-03-11T00:55:49.213Z,12.82
2019-03-11T00:56:28.487Z,10.70
2019-03-11T00:57:08.035Z,12.90
2019-03-11T00:57:48.380Z,12.80
2019-03-11T00:58:27.352Z,13.88
2019-03-11T00:59:06.681Z,12.57
2019-03-11T00:59:45.558Z,12.00
2019-03-11T01:00:28.931Z,11.43
2019-03-11T01:01:07.683Z,10.40
2019-03-11T01:01:46.529Z,11.23
2019-03-11T01:02:25.511Z,10.38
2019-03-11T01:03:04.401Z,11.40
2019-03-11T01:04:03.726Z,13.97
2019-03-11T01:04:42.877Z,11.80
2019-03-11T01:05:22.786Z,12.50
2019-03-11T01:06:03.386Z,12.80
2019-03-11T01:06:43.559Z,14.87
2019-03-11T01:07:22.825Z,11.40
2019-03-11T01:08:02.171Z,11.15
2019-03-11T01:08:41.695Z,11.23
2019-03-11T01:09:20.966Z,12.20
2019-03-11T01:10:00.392Z,12.30
2019-03-11T01:10:39.896Z,11.47
2019-03-11T01:11:19.221Z,12.27
2019-03-11T01:11:58.659Z,11.43
2019-03-11T01:12:37.376Z,13.57
2019-03-11T01:13:16.804Z,13.70
2019-03-11T01:13:56.708Z,15.05
2019-03-11T01:14:36.169Z,11.83
2019-03-11T01:15:15.057Z,13.28
2019-03-11T01:15:54.482Z,21.45
2019-03-11T01:16:33.208Z,16.63
2019-03-11T01:17:12.820Z,15.00
2019-03-11T01:17:52.515Z,21.50
2019-03-11T01:18:31.195Z,20.65
2019-03-11T01:19:10.335Z,23.00
2019-03-11T01:19:49.393Z,27.73
2019-03-11T01:20:28.297Z,41.90
2019-03-11T01:21:07.264Z,19.13
2019-03-11T01:21:46.516Z,29.90
2019-03-11T01:22:25.801Z,27.30
2019-03-11T01:23:05.069Z,19.33
2019-03-11T01:23:44.462Z,19.48
2019-03-11T01:24:25.433Z,24.47
2019-03-11T01:25:05.210Z,30.68
2019-03-11T01:25:44.847Z,25.53
2019-03-11T01:26:24.013Z,22.20
2019-03-11T01:27:03.333Z,28.70
2019-03-11T01:27:42.839Z,20.43
2019-03-11T01:28:22.179Z,24.25
2019-03-11T01:29:00.969Z,29.03
2019-03-11T01:29:40.155Z,23.43
2019-03-11T01:30:18.942Z,21.27
2019-03-11T01:30:58.060Z,23.60
2019-03-11T01:31:36.959Z,24.85
2019-03-11T01:32:16.173Z,21.57
2019-03-11T01:32:55.556Z,26.75
2019-03-11T01:33:34.903Z,30.23
2019-03-11T01:34:14.348Z,20.50
2019-03-11T01:34:53.703Z,20.80
2019-03-11T01:35:33.300Z,17.90
2019-03-11T01:36:12.656Z,22.80
2019-03-11T01:36:52.298Z,21.97
2019-03-11T01:37:31.528Z,25.25
2019-03-11T01:38:10.309Z,19.60
2019-03-11T01:38:49.033Z,25.13
2019-03-11T01:39:29.361Z,23.07
2019-03-11T01:40:11.650Z,20.37
2019-03-11T01:40:51.096Z,18.90
2019-03-11T01:41:30.142Z,28.13
2019-03-11T01:42:08.778Z,20.77
2019-03-11T01:42:47.922Z,21.70
2019-03-11T01:43:27.155Z,20.70
2019-03-11T01:44:06.225Z,20.70
2019-03-11T01:44:45.573Z,23.87
2019-03-11T01:45:24.951Z,17.60
2019-03-11T01:46:03.941Z,20.00
2019-03-11T01:46:45.002Z,21.07
2019-03-11T01:47:24.595Z,20.20
2019-03-11T01:48:04.508Z,16.70
2019-03-11T01:48:43.156Z,17.67
2019-03-11T01:49:23.974Z,20.90
2019-03-11T01:50:03.387Z,18.07
2019-03-11T01:50:42.126Z,18.97
2019-03-11T01:51:20.872Z,20.20
2019-03-11T01:51:59.546Z,20.87
2019-03-11T01:52:38.981Z,18.17
2019-03-11T01:53:18.109Z,23.00
2019-03-11T01:53:56.912Z,41.47
2019-03-11T01:54:36.411Z,20.43
2019-03-11T01:55:15.801Z,22.33
2019-03-11T01:55:55.447Z,22.60
2019-03-11T01:56:34.799Z,19.70
2019-03-11T01:57:14.102Z,18.60
2019-03-11T01:57:53.529Z,19.73
2019-03-11T01:58:32.965Z,18.83
2019-03-11T01:59:11.601Z,22.33
2019-03-11T01:59:50.800Z,22.47
2019-03-11T02:00:29.507Z,19.80
2019-03-11T02:01:08.933Z,22.27
2019-03-11T02:01:48.625Z,20.80
2019-03-11T02:02:27.892Z,20.27
2019-03-11T02:03:07.464Z,20.07
2019-03-11T02:03:46.738Z,22.97
2019-03-11T02:04:25.548Z,22.80
2019-03-11T02:05:04.831Z,20.03
2019-03-11T02:05:43.585Z,22.00
2019-03-11T02:06:22.703Z,24.93
2019-03-11T02:07:01.491Z,22.10
2019-03-11T02:07:40.225Z,19.73
2019-03-11T02:08:19.153Z,21.43
2019-03-11T02:08:58.313Z,23.40
2019-03-11T02:09:37.869Z,22.87
2019-03-11T02:10:17.540Z,20.57
2019-03-11T02:10:56.935Z,22.43
2019-03-11T02:11:36.319Z,19.40
2019-03-11T02:12:15.949Z,19.52
2019-03-11T02:12:55.422Z,22.30
2019-03-11T02:13:34.905Z,20.05
2019-03-11T02:14:13.750Z,22.10
2019-03-11T02:15:12.407Z,18.75
2019-03-11T02:15:51.201Z,19.80
2019-03-11T02:16:30.047Z,19.90
2019-03-11T02:17:08.793Z,22.03
2019-03-11T02:17:48.354Z,19.20
2019-03-11T02:18:27.793Z,22.67
2019-03-11T02:19:26.252Z,20.73
2019-03-11T02:20:05.758Z,18.40
2019-03-11T02:20:45.294Z,20.10
2019-03-11T02:21:24.183Z,23.38
2019-03-11T02:22:02.995Z,19.67
2019-03-11T02:22:41.742Z,23.37
2019-03-11T02:23:20.639Z,19.97
2019-03-11T02:23:59.865Z,22.25
2019-03-11T02:24:39.112Z,18.27
2019-03-11T02:25:18.382Z,20.87
2019-03-11T02:25:57.878Z,20.30
2019-03-11T02:26:37.309Z,19.37
2019-03-11T02:27:16.477Z,20.43
2019-03-11T02:27:56.021Z,19.83
2019-03-11T02:28:34.966Z,21.00
2019-03-11T02:29:14.228Z,19.27
2019-03-11T02:29:53.001Z,23.90
2019-03-11T02:30:31.752Z,19.33
2019-03-11T02:31:10.780Z,20.63
2019-03-11T02:31:49.669Z,24.23
2019-03-11T02:32:29.042Z,23.13
2019-03-11T02:33:08.315Z,21.63
2019-03-11T02:33:47.767Z,20.70
2019-03-11T02:34:27.218Z,24.33
2019-03-11T02:35:06.036Z,20.70
2019-03-11T02:35:44.775Z,23.40
2019-03-11T02:36:23.569Z,24.60
2019-03-11T02:37:02.224Z,20.33
2019-03-11T02:37:41.015Z,21.40
2019-03-11T02:38:20.594Z,25.20
2019-03-11T02:38:59.641Z,22.80
2019-03-11T02:39:39.128Z,22.00
2019-03-11T02:40:18.555Z,22.17
2019-03-11T02:40:57.912Z,19.33
2019-03-11T02:41:37.460Z,19.57
2019-03-11T02:42:16.340Z,21.17
2019-03-11T02:42:55.726Z,22.07
2019-03-11T02:43:34.395Z,23.40
2019-03-11T02:44:13.187Z,22.90
2019-03-11T02:44:52.185Z,21.13
2019-03-11T02:45:31.853Z,20.53
2019-03-11T02:46:10.770Z,22.47
2019-03-11T02:46:50.188Z,20.70
2019-03-11T02:47:29.623Z,21.40
2019-03-11T02:48:08.255Z,25.53
2019-03-11T02:48:46.962Z,21.70
2019-03-11T02:49:26.318Z,20.77
2019-03-11T02:50:05.026Z,20.90
2019-03-11T02:50:43.766Z,25.60
2019-03-11T02:51:23.003Z,21.23
2019-03-11T02:52:02.786Z,20.80
2019-03-11T02:52:41.771Z,24.30
2019-03-11T02:53:20.849Z,23.80
2019-03-11T02:53:59.981Z,22.27
2019-03-11T02:54:39.407Z,22.13
2019-03-11T02:55:18.893Z,22.57
2019-03-11T02:55:58.232Z,24.87
2019-03-11T02:56:37.090Z,21.73
2019-03-11T02:57:16.210Z,24.57
2019-03-11T02:57:55.667Z,27.13
2019-03-11T02:58:35.016Z,21.30
2019-03-11T02:59:13.780Z,23.60
2019-03-11T02:59:52.788Z,23.00
2019-03-11T03:00:32.003Z,21.57
2019-03-11T03:01:27.713Z,24.57
2019-03-11T03:02:34.293Z,22.10
2019-03-11T03:03:49.730Z,21.97
2019-03-11T03:04:33.859Z,23.23
2019-03-11T03:05:25.049Z,24.00
2019-03-11T03:06:08.093Z,23.93
2019-03-11T03:06:47.412Z,22.40
2019-03-11T03:07:26.100Z,23.83
2019-03-11T03:08:04.865Z,23.00
2019-03-11T03:08:43.925Z,24.00
2019-03-11T03:09:23.540Z,22.07
2019-03-11T03:10:03.032Z,22.77
2019-03-11T03:10:42.536Z,25.57
2019-03-11T03:11:21.834Z,26.97
2019-03-11T03:12:01.373Z,22.93
2019-03-11T03:12:40.501Z,26.57
2019-03-11T03:13:19.826Z,24.17
2019-03-11T03:13:59.786Z,23.87
2019-03-11T03:14:39.816Z,27.47
2019-03-11T03:15:18.488Z,26.27
2019-03-11T03:15:58.367Z,22.77
2019-03-11T03:16:37.512Z,26.80
2019-03-11T03:17:16.231Z,26.00
2019-03-11T03:17:55.092Z,22.17
2019-03-11T03:18:34.374Z,26.73
2019-03-11T03:19:13.524Z,22.67
2019-03-11T03:19:52.847Z,27.47
2019-03-11T03:20:32.492Z,23.80
2019-03-11T03:21:12.467Z,29.37
2019-03-11T03:21:52.382Z,24.43
2019-03-11T03:22:31.984Z,29.23
2019-03-11T03:23:11.318Z,23.73
2019-03-11T03:23:50.869Z,24.70
2019-03-11T03:24:30.222Z,28.03
2019-03-11T03:25:10.278Z,24.17
2019-03-11T03:25:50.346Z,23.83
2019-03-11T03:26:29.843Z,22.80
2019-03-11T03:27:09.042Z,26.60
2019-03-11T03:27:47.843Z,24.80
2019-03-11T03:28:26.664Z,24.27
2019-03-11T03:29:05.571Z,26.90
2019-03-11T03:29:44.956Z,24.53
2019-03-11T03:30:24.242Z,26.00
2019-03-11T03:31:03.470Z,26.27
2019-03-11T03:31:42.647Z,26.10
2019-03-11T03:32:22.108Z,26.43
2019-03-11T03:33:01.690Z,23.13
2019-03-11T03:33:41.069Z,24.00
2019-03-11T03:34:19.874Z,24.50
2019-03-11T03:34:59.097Z,26.83
2019-03-11T03:35:38.650Z,27.70
2019-03-11T03:36:17.506Z,23.20
2019-03-11T03:36:56.403Z,21.20
2019-03-11T03:37:35.564Z,22.83
2019-03-11T03:38:28.866Z,23.98
2019-03-11T03:38:55.111Z,21.03
2019-03-11T03:39:35.278Z,20.93
2019-03-11T03:40:15.263Z,22.35
2019-03-11T03:40:54.438Z,23.03
2019-03-11T03:41:33.967Z,20.70
2019-03-11T03:42:13.761Z,23.13
2019-03-11T03:42:53.451Z,21.30
2019-03-11T03:43:32.705Z,21.17
2019-03-11T03:44:12.446Z,22.20
2019-03-11T03:45:25.953Z,20.57
2019-03-11T03:46:17.938Z,20.17
2019-03-11T03:46:45.397Z,21.17
2019-03-11T03:47:24.814Z,24.43
2019-03-11T03:48:07.309Z,24.40
2019-03-11T03:48:46.931Z,20.23
2019-03-11T03:49:26.542Z,23.03
2019-03-11T03:50:05.951Z,21.93
2019-03-11T03:50:45.185Z,19.70
2019-03-11T03:51:24.830Z,19.60
2019-03-11T03:52:07.709Z,20.33
2019-03-11T03:52:46.941Z,19.50
2019-03-11T03:53:26.312Z,19.17
2019-03-11T03:54:05.681Z,20.40
2019-03-11T03:54:44.768Z,21.37
2019-03-11T03:55:24.396Z,21.40
2019-03-11T03:56:03.497Z,19.40
2019-03-11T03:56:42.718Z,19.40
2019-03-11T03:57:21.423Z,19.43
2019-03-11T03:58:00.168Z,19.23
2019-03-11T03:58:39.086Z,19.17
2019-03-11T03:59:18.174Z,19.97
2019-03-11T03:59:57.466Z,21.27
2019-03-11T04:00:36.981Z,18.10
2019-03-11T04:01:16.425Z,17.83
2019-03-11T04:01:55.877Z,24.03
2019-03-11T04:02:35.023Z,22.90
2019-03-11T04:03:13.736Z,16.93
2019-03-11T04:03:53.240Z,20.03
2019-03-11T04:04:32.265Z,19.03
2019-03-11T04:05:11.098Z,18.60
2019-03-11T04:05:49.869Z,17.80
2019-03-11T04:06:28.701Z,17.30
2019-03-11T04:07:07.826Z,17.67
2019-03-11T04:07:47.188Z,18.77
2019-03-11T04:08:26.596Z,17.63
2019-03-11T04:09:05.945Z,16.70
2019-03-11T04:09:45.407Z,17.43
2019-03-11T04:10:24.778Z,17.37
2019-03-11T04:11:04.725Z,16.80
2019-03-11T04:11:43.653Z,19.30
2019-03-11T04:12:22.365Z,17.23
2019-03-11T04:13:01.599Z,17.30
2019-03-11T04:13:40.322Z,17.20
2019-03-11T04:14:19.359Z,17.17
2019-03-11T04:14:58.581Z,17.07
2019-03-11T04:15:38.309Z,16.00
2019-03-11T04:16:17.684Z,22.40
2019-03-11T04:16:56.887Z,18.10
2019-03-11T04:17:36.187Z,15.63
2019-03-11T04:18:15.524Z,18.03
2019-03-11T04:18:56.781Z,16.67
2019-03-11T04:19:35.882Z,16.03
2019-03-11T04:20:16.762Z,17.23
2019-03-11T04:20:56.294Z,17.57
2019-03-11T04:21:35.705Z,16.50
2019-03-11T04:22:15.218Z,16.60
2019-03-11T04:22:53.850Z,17.10
2019-03-11T04:23:32.602Z,16.60
2019-03-11T04:24:11.945Z,16.50
2019-03-11T04:24:50.651Z,17.10
2019-03-11T04:25:31.551Z,15.60
2019-03-11T04:26:10.221Z,16.40
2019-03-11T04:26:53.453Z,16.17
2019-03-11T04:27:32.214Z,16.20
2019-03-11T04:28:11.030Z,16.90
2019-03-11T04:28:50.063Z,17.27
2019-03-11T04:29:29.944Z,17.17
2019-03-11T04:30:10.373Z,17.33
2019-03-11T04:30:49.326Z,15.93
2019-03-11T04:31:28.663Z,18.47
2019-03-11T04:32:08.040Z,16.37
2019-03-11T04:32:47.322Z,17.40
2019-03-11T04:33:27.085Z,16.50
2019-03-11T04:34:06.140Z,16.40
2019-03-11T04:34:44.788Z,16.70
2019-03-11T04:35:23.580Z,16.93
2019-03-11T04:36:02.296Z,17.90
2019-03-11T04:36:41.464Z,16.90
2019-03-11T04:37:20.748Z,16.43
2019-03-11T04:38:00.105Z,16.90
2019-03-11T04:38:38.847Z,16.90
2019-03-11T04:39:18.251Z,16.20
2019-03-11T04:39:57.893Z,16.83
2019-03-11T04:40:37.832Z,16.87
2019-03-11T04:41:17.692Z,16.87
2019-03-11T04:41:56.521Z,16.60
2019-03-11T04:42:35.862Z,16.33
2019-03-11T04:43:14.673Z,16.97
2019-03-11T04:43:53.447Z,16.97
2019-03-11T04:44:33.100Z,17.33
2019-03-11T04:45:13.278Z,17.30
2019-03-11T04:45:52.679Z,16.63
2019-03-11T04:46:31.594Z,17.40
2019-03-11T04:47:10.850Z,17.50
2019-03-11T04:47:50.510Z,17.67
2019-03-11T04:48:29.749Z,16.33
2019-03-11T04:49:09.167Z,17.03
2019-03-11T04:49:48.646Z,17.67
2019-03-11T04:50:28.934Z,17.23
2019-03-11T04:51:08.410Z,17.03
2019-03-11T04:51:47.723Z,16.03
2019-03-11T04:52:27.078Z,16.47
2019-03-11T04:53:06.518Z,17.20
2019-03-11T04:53:45.439Z,19.97
2019-03-11T04:54:24.581Z,17.00
2019-03-11T04:55:03.353Z,15.83
2019-03-11T04:55:42.484Z,16.97
2019-03-11T04:56:22.350Z,16.83
2019-03-11T04:57:01.808Z,18.13
2019-03-11T04:57:48.804Z,20.90
2019-03-11T04:58:28.349Z,17.63
2019-03-11T04:59:15.517Z,17.53
2019-03-11T04:59:55.110Z,16.60
2019-03-11T05:00:33.924Z,15.23
2019-03-11T05:01:12.605Z,16.87
2019-03-11T05:01:51.780Z,15.77
2019-03-11T05:02:31.053Z,16.20
2019-03-11T05:03:12.996Z,15.93
2019-03-11T05:03:51.715Z,16.83
2019-03-11T05:04:31.057Z,15.40
2019-03-11T05:05:09.996Z,16.10
2019-03-11T05:05:48.815Z,14.93
2019-03-11T05:06:28.295Z,15.60
2019-03-11T05:07:07.011Z,15.60
2019-03-11T05:07:45.819Z,15.40
2019-03-11T05:08:24.559Z,16.33
2019-03-11T05:09:04.374Z,15.80
2019-03-11T05:09:43.572Z,16.63
2019-03-11T05:10:23.110Z,16.47
2019-03-11T05:11:02.326Z,17.57
2019-03-11T05:11:41.553Z,15.50
2019-03-11T05:12:21.173Z,17.97
2019-03-11T05:13:00.587Z,15.90
2019-03-11T05:13:40.049Z,15.70
2019-03-11T05:14:19.432Z,16.20
2019-03-11T05:14:58.877Z,15.83
2019-03-11T05:15:38.248Z,16.33
2019-03-11T05:16:17.001Z,16.93
2019-03-11T05:16:55.753Z,15.90
2019-03-11T05:17:34.760Z,15.67
2019-03-11T05:18:13.526Z,15.80
2019-03-11T05:18:52.707Z,15.60
2019-03-11T05:19:31.928Z,16.50
2019-03-11T05:20:11.686Z,16.10
2019-03-11T05:20:51.039Z,16.80
2019-03-11T05:21:30.428Z,17.00
2019-03-11T05:22:09.150Z,16.40
2019-03-11T05:22:47.857Z,15.53
2019-03-11T05:23:26.633Z,15.70
2019-03-11T05:24:05.631Z,16.90
2019-03-11T05:24:44.391Z,18.27
2019-03-11T05:25:23.837Z,16.23
2019-03-11T05:26:03.026Z,16.90
2019-03-11T05:26:42.249Z,16.20
2019-03-11T05:27:21.722Z,15.97
2019-03-11T05:28:01.134Z,16.47
2019-03-11T05:28:39.825Z,16.50
2019-03-11T05:29:19.357Z,16.03
2019-03-11T05:29:58.039Z,16.20
2019-03-11T05:30:36.824Z,16.20
2019-03-11T05:31:15.766Z,16.63
2019-03-11T05:31:54.937Z,16.83
2019-03-11T05:32:34.122Z,16.00
2019-03-11T05:33:13.251Z,16.50
2019-03-11T05:33:53.240Z,17.83
2019-03-11T05:34:33.049Z,17.33
2019-03-11T05:35:12.341Z,19.43
2019-03-11T05:35:51.836Z,21.00
2019-03-11T05:36:31.154Z,18.63
2019-03-11T05:37:10.585Z,18.30
2019-03-11T05:37:52.864Z,21.10
2019-03-11T05:38:32.236Z,15.47
2019-03-11T05:39:12.276Z,17.97
2019-03-11T05:39:52.434Z,19.13
2019-03-11T05:40:31.846Z,17.23
2019-03-11T05:41:11.213Z,17.13
2019-03-11T05:41:50.249Z,17.40
2019-03-11T05:42:28.993Z,17.07
2019-03-11T05:43:08.330Z,18.47
2019-03-11T05:43:47.069Z,17.10
2019-03-11T05:44:26.112Z,17.17
2019-03-11T05:45:05.306Z,15.93
2019-03-11T05:45:44.803Z,17.20
2019-03-11T05:46:24.225Z,16.87
2019-03-11T05:47:03.768Z,16.17
2019-03-11T05:47:43.132Z,16.23
2019-03-11T05:48:23.329Z,26.77
2019-03-11T05:49:02.947Z,15.93
2019-03-11T05:49:42.474Z,17.50
2019-03-11T05:50:21.267Z,15.50
2019-03-11T05:51:00.015Z,15.73
2019-03-11T05:51:38.873Z,16.00
2019-03-11T05:52:18.681Z,16.10
2019-03-11T05:52:58.461Z,17.43
2019-03-11T05:53:37.860Z,15.23
2019-03-11T05:54:17.905Z,14.93
2019-03-11T05:54:57.180Z,16.07
2019-03-11T05:55:36.574Z,15.20
2019-03-11T05:56:15.923Z,15.87
2019-03-11T05:56:55.482Z,16.27
2019-03-11T05:57:35.363Z,14.90
2019-03-11T05:58:15.367Z,14.98
2019-03-11T05:58:54.886Z,17.17
2019-03-11T05:59:34.328Z,15.30
2019-03-11T06:00:17.259Z,15.63
2019-03-11T06:00:56.462Z,14.07
2019-03-11T06:01:35.902Z,13.90
2019-03-11T06:02:15.373Z,13.72
2019-03-11T06:02:55.073Z,15.00
2019-03-11T06:03:34.313Z,15.40
2019-03-11T06:04:13.652Z,14.70
2019-03-11T06:04:53.288Z,14.00
2019-03-11T06:05:32.192Z,15.20
2019-03-11T06:06:10.946Z,14.03
2019-03-11T06:06:49.538Z,14.60
2019-03-11T06:07:28.801Z,14.43
2019-03-11T06:08:08.983Z,14.27
2019-03-11T06:08:48.754Z,14.37
2019-03-11T06:09:27.723Z,13.07
2019-03-11T06:10:07.079Z,15.00
2019-03-11T06:10:46.619Z,14.73
2019-03-11T06:11:26.011Z,14.63
2019-03-11T06:12:05.489Z,14.90
2019-03-11T06:12:44.307Z,13.80
2019-03-11T06:13:23.756Z,14.07
2019-03-11T06:14:02.582Z,12.57
2019-03-11T06:14:42.477Z,14.23
2019-03-11T06:15:21.280Z,14.73
2019-03-11T06:15:59.999Z,13.60
2019-03-11T06:16:39.133Z,14.03
2019-03-11T06:17:18.737Z,15.47
2019-03-11T06:17:58.093Z,13.53
2019-03-11T06:18:49.098Z,15.63
2019-03-11T06:19:31.284Z,14.10
2019-03-11T06:20:29.900Z,14.17
2019-03-11T06:21:25.953Z,12.97
2019-03-11T06:22:15.409Z,13.97
2019-03-11T06:22:54.139Z,13.50
2019-03-11T06:23:32.866Z,14.27
2019-03-11T06:24:11.529Z,12.90
2019-03-11T06:24:50.315Z,13.43
2019-03-11T06:25:29.290Z,12.90
2019-03-11T06:26:08.626Z,13.27
2019-03-11T06:26:47.994Z,13.87
2019-03-11T06:27:27.440Z,14.40
2019-03-11T06:28:06.855Z,13.37
2019-03-11T06:28:46.146Z,13.27
2019-03-11T06:29:30.614Z,13.70
2019-03-11T06:30:08.155Z,12.00
2019-03-11T06:30:47.376Z,12.10
2019-03-11T06:31:26.583Z,12.70
2019-03-11T06:32:06.166Z,12.77
2019-03-11T06:32:45.595Z,12.03
2019-03-11T06:33:25.057Z,13.03
2019-03-11T06:34:03.702Z,12.77
2019-03-11T06:34:43.131Z,12.20
2019-03-11T06:35:21.875Z,13.60
2019-03-11T06:36:00.895Z,12.17
2019-03-11T06:36:40.149Z,11.07
2019-03-11T06:37:19.570Z,12.43
2019-03-11T06:37:58.716Z,14.40
2019-03-11T06:38:37.980Z,11.50
2019-03-11T06:39:17.520Z,11.93
2019-03-11T06:39:56.733Z,12.30
2019-03-11T06:40:36.224Z,11.60
2019-03-11T06:41:14.932Z,12.50
2019-03-11T06:41:53.636Z,11.83
2019-03-11T06:42:32.368Z,12.00
2019-03-11T06:43:11.292Z,12.30
2019-03-11T06:43:50.589Z,12.50
2019-03-11T06:44:30.137Z,11.47
2019-03-11T06:45:09.267Z,12.33
2019-03-11T06:45:48.067Z,12.20
2019-03-11T06:46:27.381Z,11.70
2019-03-11T06:47:06.850Z,12.17
2019-03-11T06:47:46.348Z,11.87
2019-03-11T06:48:25.483Z,12.00
2019-03-11T06:49:04.192Z,11.87
2019-03-11T06:49:42.971Z,12.80
2019-03-11T06:50:21.763Z,12.07
2019-03-11T06:51:00.973Z,12.20
2019-03-11T06:51:40.482Z,12.10
2019-03-11T06:52:19.655Z,11.43
2019-03-11T06:52:59.033Z,11.60
2019-03-11T06:53:40.131Z,12.53
2019-03-11T06:54:19.613Z,11.93
2019-03-11T06:54:58.952Z,13.53
2019-03-11T06:55:38.364Z,11.77
2019-03-11T06:56:35.591Z,12.10
2019-03-11T06:57:14.383Z,11.93
2019-03-11T06:57:53.192Z,12.53
2019-03-11T06:58:32.231Z,12.63
2019-03-11T06:59:11.649Z,11.37
2019-03-11T06:59:50.939Z,13.27
2019-03-11T07:00:30.589Z,11.77
2019-03-11T07:01:09.841Z,12.50
2019-03-11T07:01:49.394Z,11.50
2019-03-11T07:02:28.562Z,12.10
2019-03-11T07:03:07.335Z,11.87
2019-03-11T07:03:46.483Z,11.97
2019-03-11T07:04:28.688Z,13.37
2019-03-11T07:05:18.764Z,12.60
2019-03-11T07:05:48.961Z,11.53
2019-03-11T07:06:28.205Z,13.23
2019-03-11T07:07:07.648Z,11.43
2019-03-11T07:07:46.418Z,12.50
2019-03-11T07:08:25.088Z,11.63
2019-03-11T07:09:03.846Z,11.63
2019-03-11T07:09:43.104Z,11.37
2019-03-11T07:10:24.116Z,12.47
2019-03-11T07:11:03.331Z,11.20
2019-03-11T07:11:42.824Z,11.97
2019-03-11T07:12:22.098Z,11.60
2019-03-11T07:13:01.443Z,11.90
2019-03-11T07:13:40.610Z,11.47
2019-03-11T07:14:20.025Z,11.50
2019-03-11T07:14:59.500Z,12.53
2019-03-11T07:15:38.795Z,13.17
2019-03-11T07:16:18.770Z,11.90
2019-03-11T07:16:57.622Z,11.57
2019-03-11T07:17:37.247Z,12.53
2019-03-11T07:18:16.803Z,12.37
2019-03-11T07:18:56.311Z,12.17
2019-03-11T07:19:35.232Z,13.20
2019-03-11T07:20:15.746Z,12.00
2019-03-11T07:20:54.669Z,12.73
2019-03-11T07:21:33.685Z,11.33
2019-03-11T07:22:14.507Z,11.20
2019-03-11T07:22:53.494Z,11.83
2019-03-11T07:23:32.752Z,12.87
2019-03-11T07:24:12.133Z,11.77
2019-03-11T07:24:51.704Z,11.83
2019-03-11T07:25:30.891Z,11.57
2019-03-11T07:26:10.468Z,12.90
2019-03-11T07:26:49.733Z,11.40
2019-03-11T07:27:29.113Z,12.10
2019-03-11T07:28:07.763Z,12.07
2019-03-11T07:28:46.669Z,12.30
2019-03-11T07:29:25.398Z,12.30
2019-03-11T07:30:04.421Z,12.90
2019-03-11T07:30:43.564Z,12.93
2019-03-11T07:31:22.876Z,12.03
2019-03-11T07:32:02.179Z,12.70
2019-03-11T07:32:41.799Z,12.70
2019-03-11T07:33:24.651Z,12.60
2019-03-11T07:34:03.771Z,12.30
2019-03-11T07:34:43.054Z,11.43
2019-03-11T07:35:25.672Z,12.03
2019-03-11T07:36:04.983Z,11.97
2019-03-11T07:36:44.982Z,13.40
2019-03-11T07:37:24.148Z,12.87
2019-03-11T07:38:03.457Z,12.33
2019-03-11T07:38:42.688Z,12.53
2019-03-11T07:39:22.401Z,12.50
2019-03-11T07:40:01.081Z,12.50
2019-03-11T07:40:41.071Z,12.53
2019-03-11T07:41:21.067Z,12.60
2019-03-11T07:41:59.787Z,12.83
2019-03-11T07:42:38.461Z,12.03
2019-03-11T07:43:17.261Z,12.37
2019-03-11T07:43:56.051Z,12.57
2019-03-11T07:44:35.287Z,12.43
2019-03-11T07:45:14.269Z,12.00
2019-03-11T07:45:53.675Z,12.47
2019-03-11T07:46:32.495Z,11.90
2019-03-11T07:47:12.070Z,11.90
2019-03-11T07:47:51.435Z,11.97
2019-03-11T07:48:30.352Z,11.77
2019-03-11T07:49:09.600Z,12.07
2019-03-11T07:49:48.778Z,12.30
2019-03-11T07:50:27.512Z,11.50
2019-03-11T07:51:07.355Z,11.77
2019-03-11T07:51:46.852Z,12.20
2019-03-11T07:52:25.657Z,13.40
2019-03-11T07:53:05.389Z,13.67
2019-03-11T07:53:44.168Z,11.90
2019-03-11T07:54:23.654Z,12.13
2019-03-11T07:55:03.015Z,13.30
2019-03-11T07:55:42.876Z,11.60
2019-03-11T07:56:24.067Z,12.00
2019-03-11T07:57:02.947Z,12.93
2019-03-11T07:57:42.294Z,13.07
2019-03-11T07:58:24.414Z,11.63
2019-03-11T07:59:03.810Z,11.20
2019-03-11T07:59:43.740Z,12.53
2019-03-11T08:00:23.084Z,11.13
2019-03-11T08:01:02.623Z,11.33
2019-03-11T08:01:42.159Z,11.93
2019-03-11T08:02:23.736Z,11.03
2019-03-11T08:03:03.184Z,11.57
2019-03-11T08:03:43.091Z,11.27
2019-03-11T08:04:22.643Z,12.10
2019-03-11T08:05:02.120Z,11.80
2019-03-11T08:05:41.305Z,10.27
2019-03-11T08:06:20.092Z,11.30
2019-03-11T08:06:59.023Z,11.10
2019-03-11T08:07:37.859Z,12.30
2019-03-11T08:08:17.059Z,11.27
2019-03-11T08:08:56.428Z,11.57
2019-03-11T08:09:38.081Z,11.33
2019-03-11T08:10:15.843Z,11.20
2019-03-11T08:10:55.139Z,11.97
2019-03-11T08:11:34.675Z,11.07
2019-03-11T08:12:14.098Z,11.80
2019-03-11T08:12:53.340Z,11.10
2019-03-11T08:13:32.870Z,11.53
2019-03-11T08:14:11.602Z,10.70
2019-03-11T08:14:50.429Z,9.90
2019-03-11T08:15:29.545Z,11.60
2019-03-11T08:16:08.646Z,11.17
2019-03-11T08:16:47.685Z,11.70
2019-03-11T08:17:27.276Z,11.40
2019-03-11T08:18:06.646Z,11.07
2019-03-11T08:18:46.044Z,11.70
2019-03-11T08:19:25.875Z,11.83
2019-03-11T08:20:05.987Z,10.83
2019-03-11T08:20:45.401Z,11.63
2019-03-11T08:21:27.337Z,11.63
2019-03-11T08:22:06.878Z,11.00
2019-03-11T08:22:47.123Z,11.43
2019-03-11T08:23:27.220Z,11.17
2019-03-11T08:24:07.203Z,11.90
2019-03-11T08:24:47.180Z,11.90
2019-03-11T08:25:27.138Z,11.33
2019-03-11T08:26:06.963Z,11.30
2019-03-11T08:26:47.239Z,11.90
2019-03-11T08:27:27.261Z,12.17
2019-03-11T08:28:06.861Z,11.50
2019-03-11T08:28:46.993Z,11.90
2019-03-11T08:29:26.972Z,11.93
2019-03-11T08:30:06.667Z,12.40
2019-03-11T08:30:46.720Z,11.03
2019-03-11T08:31:27.087Z,11.40
2019-03-11T08:32:09.162Z,11.60
2019-03-11T08:32:49.224Z,12.87